Terminal Aerodrome Forecast
Issued by NWS Sterling, VA

Current Version | Previous Version | Graphics & Text | Print | Product List | Glossary On
Versions: 1 2 3 4 5 6 7 8 9 10 11 12 13 14 15 16 17 18 19 20 21 22 23 24 25 26 27 28 29 30
869
FTUS41 KLWX 210901 AAA
TAFIAD
TAF AMD
KIAD 210901Z 2109/2212 08004KT 4SM RA BR OVC035
     FM211300 05008KT 3SM RA BR OVC010
     FM211500 05009KT 5SM -RA BR OVC008
     FM212100 02009KT 5SM -DZ BR OVC010
     FM220600 01008KT 3SM -SHRA BR OVC015=

USA.gov is the U.S. government's official web portal to all federal, state and local government web resources and services.